createdAt,value
2018-02-08T00:00:17.678Z,21.5
2018-02-08T00:01:19.284Z,14.1
2018-02-08T00:02:20.891Z,12.9
2018-02-08T00:03:22.497Z,18.8
2018-02-08T00:04:24.103Z,13.0
2018-02-08T00:05:25.713Z,18.0
2018-02-08T00:06:27.320Z,12.3
2018-02-08T00:07:28.921Z,10.9
2018-02-08T00:08:30.526Z,13.2
2018-02-08T00:09:32.133Z,11.5
2018-02-08T00:10:33.737Z,13.6
2018-02-08T00:11:35.343Z,15.2
2018-02-08T00:12:36.952Z,12.4
2018-02-08T00:13:38.555Z,23.9
2018-02-08T00:14:40.158Z,12.5
2018-02-08T00:15:41.768Z,11.6
2018-02-08T00:16:43.374Z,19.2
2018-02-08T00:17:44.982Z,11.5
2018-02-08T00:18:46.585Z,15.4
2018-02-08T00:19:48.192Z,15.6
2018-02-08T00:20:49.798Z,17.5
2018-02-08T00:21:51.400Z,15.6
2018-02-08T00:22:53.006Z,37.4
2018-02-08T00:23:54.613Z,13.6
2018-02-08T00:24:56.223Z,14.6
2018-02-08T00:25:57.826Z,17.1
2018-02-08T00:26:59.431Z,14.1
2018-02-08T00:28:01.048Z,13.9
2018-02-08T00:29:02.652Z,18.3
2018-02-08T00:30:04.260Z,14.3
2018-02-08T00:31:05.909Z,12.8
2018-02-08T00:32:07.472Z,11.5
2018-02-08T00:33:09.077Z,15.6
2018-02-08T00:34:11.527Z,20.1
2018-02-08T00:35:13.136Z,19.3
2018-02-08T00:36:14.737Z,15.0
2018-02-08T00:37:16.348Z,13.9
2018-02-08T00:38:17.951Z,12.3
2018-02-08T00:39:19.560Z,26.1
2018-02-08T00:40:21.165Z,17.2
2018-02-08T00:41:22.770Z,15.0
2018-02-08T00:42:24.375Z,14.2
2018-02-08T00:43:25.980Z,9.5
2018-02-08T00:44:27.589Z,14.2
2018-02-08T00:45:29.196Z,18.7
2018-02-08T00:46:30.800Z,10.9
2018-02-08T00:47:32.408Z,14.7
2018-02-08T00:48:34.009Z,12.9
2018-02-08T00:49:35.619Z,19.4
2018-02-08T00:50:37.224Z,14.5
2018-02-08T00:51:38.828Z,24.3
2018-02-08T00:52:40.438Z,12.7
2018-02-08T00:53:42.041Z,15.9
2018-02-08T00:54:43.652Z,17.4
2018-02-08T00:55:45.253Z,12.5
2018-02-08T00:56:46.862Z,18.9
2018-02-08T00:57:48.463Z,12.3
2018-02-08T00:58:50.074Z,12.7
2018-02-08T00:59:51.674Z,13.5
2018-02-08T01:00:53.280Z,14.8
2018-02-08T01:01:54.884Z,13.2
2018-02-08T01:02:56.501Z,11.6
2018-02-08T01:03:58.107Z,14.4
2018-02-08T01:04:59.712Z,14.1
2018-02-08T01:06:01.315Z,13.1
2018-02-08T01:07:02.917Z,31.3
2018-02-08T01:08:04.526Z,15.9
2018-02-08T01:09:06.130Z,12.7
2018-02-08T01:10:07.730Z,26.2
2018-02-08T01:11:09.339Z,12.2
2018-02-08T01:12:10.945Z,11.1
2018-02-08T01:13:12.551Z,14.6
2018-02-08T01:14:14.155Z,12.6
2018-02-08T01:15:15.764Z,13.9
2018-02-08T01:16:17.373Z,23.5
2018-02-08T01:17:18.977Z,13.7
2018-02-08T01:18:20.585Z,14.5
2018-02-08T01:19:22.185Z,13.2
2018-02-08T01:20:23.794Z,12.3
2018-02-08T01:21:26.275Z,14.1
2018-02-08T01:22:27.879Z,11.1
2018-02-08T01:23:29.484Z,10.9
2018-02-08T01:24:31.089Z,12.8
2018-02-08T01:25:32.694Z,22.4
2018-02-08T01:26:34.303Z,14.0
2018-02-08T01:27:35.904Z,16.4
2018-02-08T01:28:37.512Z,17.3
2018-02-08T01:29:39.121Z,11.6
2018-02-08T01:30:40.728Z,17.7
2018-02-08T01:31:42.329Z,19.2
2018-02-08T01:32:43.937Z,13.6
2018-02-08T01:33:45.542Z,13.3
2018-02-08T01:34:47.149Z,14.7
2018-02-08T01:35:48.752Z,12.6
2018-02-08T01:36:50.357Z,13.9
2018-02-08T01:37:51.967Z,16.1
2018-02-08T01:38:53.575Z,21.0
2018-02-08T01:39:55.176Z,21.8
2018-02-08T01:40:56.785Z,12.2
2018-02-08T01:41:58.386Z,18.5
2018-02-08T01:42:59.994Z,21.4
2018-02-08T01:44:01.602Z,13.0
2018-02-08T01:45:03.210Z,21.6
2018-02-08T01:46:04.812Z,13.4
2018-02-08T01:47:06.416Z,13.1
2018-02-08T01:48:08.025Z,11.8
2018-02-08T01:49:09.631Z,12.9
2018-02-08T01:50:11.233Z,14.5
2018-02-08T01:51:12.837Z,14.5
2018-02-08T01:52:14.446Z,13.9
2018-02-08T01:53:16.053Z,13.1
2018-02-08T01:54:17.657Z,11.0
2018-02-08T01:55:19.259Z,9.6
2018-02-08T01:56:20.869Z,12.9
2018-02-08T01:57:22.477Z,12.0
2018-02-08T01:58:24.078Z,11.6
2018-02-08T01:59:25.687Z,15.3
2018-02-08T02:00:27.289Z,16.0
2018-02-08T02:01:28.896Z,15.4
2018-02-08T02:02:30.501Z,14.4
2018-02-08T02:03:32.109Z,14.5
2018-02-08T02:04:33.709Z,9.4
2018-02-08T02:05:35.320Z,15.1
2018-02-08T02:06:36.924Z,14.9
2018-02-08T02:07:38.534Z,12.2
2018-02-08T02:08:40.134Z,13.0
2018-02-08T02:09:41.742Z,9.8
2018-02-08T02:10:43.345Z,11.3
2018-02-08T02:11:44.953Z,8.9
2018-02-08T02:12:46.555Z,22.7
2018-02-08T02:13:48.160Z,9.2
2018-02-08T02:14:49.766Z,10.4
2018-02-08T02:15:51.369Z,14.5
2018-02-08T02:16:52.974Z,12.9
2018-02-08T02:17:54.577Z,14.5
2018-02-08T02:18:56.187Z,12.4
2018-02-08T02:19:57.789Z,9.9
2018-02-08T02:20:59.396Z,11.2
2018-02-08T02:22:00.997Z,15.6
2018-02-08T02:23:02.605Z,9.4
2018-02-08T02:24:04.204Z,14.3
2018-02-08T02:25:05.812Z,14.6
2018-02-08T02:26:07.413Z,13.1
2018-02-08T02:27:09.023Z,9.6
2018-02-08T02:28:10.628Z,16.9
2018-02-08T02:29:12.237Z,12.3
2018-02-08T02:30:13.839Z,10.9
2018-02-08T02:31:16.237Z,12.8
2018-02-08T02:32:17.839Z,8.5
2018-02-08T02:33:19.446Z,17.3
2018-02-08T02:34:21.054Z,9.0
2018-02-08T02:35:22.655Z,9.0
2018-02-08T02:36:24.257Z,9.3
2018-02-08T02:37:25.864Z,16.1
2018-02-08T02:38:27.464Z,13.6
2018-02-08T02:39:29.074Z,18.2
2018-02-08T02:40:30.680Z,12.9
2018-02-08T02:41:32.284Z,11.6
2018-02-08T02:42:33.890Z,19.1
2018-02-08T02:43:35.495Z,10.8
2018-02-08T02:44:37.116Z,11.7
2018-02-08T02:45:38.686Z,19.6
2018-02-08T02:46:40.286Z,12.3
2018-02-08T02:47:41.893Z,10.7
2018-02-08T02:48:43.501Z,11.1
2018-02-08T02:49:45.105Z,17.8
2018-02-08T02:50:46.708Z,10.6
2018-02-08T02:51:48.316Z,26.8
2018-02-08T02:52:49.920Z,9.9
2018-02-08T02:53:51.522Z,10.0
2018-02-08T02:54:53.130Z,10.5
2018-02-08T02:55:54.739Z,12.6
2018-02-08T02:56:56.346Z,14.5
2018-02-08T02:57:57.944Z,11.1
2018-02-08T02:58:59.546Z,12.9
2018-02-08T03:00:01.157Z,10.1
2018-02-08T03:01:02.764Z,12.0
2018-02-08T03:02:04.362Z,9.0
2018-02-08T03:03:05.972Z,10.8
2018-02-08T03:04:07.578Z,10.1
2018-02-08T03:05:09.179Z,11.5
2018-02-08T03:06:10.787Z,8.9
2018-02-08T03:07:12.393Z,10.3
2018-02-08T03:08:13.998Z,16.3
2018-02-08T03:09:15.594Z,9.6
2018-02-08T03:10:17.205Z,15.0
2018-02-08T03:11:18.813Z,14.2
2018-02-08T03:12:20.411Z,16.4
2018-02-08T03:13:22.020Z,14.0
2018-02-08T03:14:23.621Z,11.6
2018-02-08T03:15:25.228Z,10.1
2018-02-08T03:16:26.833Z,20.8
2018-02-08T03:17:28.443Z,10.4
2018-02-08T03:18:30.044Z,16.8
2018-02-08T03:19:31.650Z,16.6
2018-02-08T03:20:33.249Z,9.8
2018-02-08T03:21:34.856Z,13.2
2018-02-08T03:22:36.458Z,10.5
2018-02-08T03:23:38.067Z,17.5
2018-02-08T03:24:39.670Z,8.1
2018-02-08T03:25:41.279Z,16.2
2018-02-08T03:26:42.879Z,11.6
2018-02-08T03:27:44.482Z,11.6
2018-02-08T03:28:46.089Z,10.0
2018-02-08T03:29:47.695Z,7.4
2018-02-08T03:30:49.296Z,9.3
2018-02-08T03:31:50.912Z,15.2
2018-02-08T03:32:52.511Z,16.3
2018-02-08T03:33:54.116Z,8.8
2018-02-08T03:34:55.716Z,11.1
2018-02-08T03:35:57.319Z,7.1
2018-02-08T03:36:58.925Z,12.0
2018-02-08T03:38:00.528Z,10.9
2018-02-08T03:39:02.138Z,13.5
2018-02-08T03:40:03.738Z,17.2
2018-02-08T03:41:05.347Z,13.6
2018-02-08T03:42:06.948Z,15.1
2018-02-08T03:43:08.556Z,10.2
2018-02-08T03:44:10.163Z,15.4
2018-02-08T03:45:11.765Z,9.3
2018-02-08T03:46:13.368Z,16.1
2018-02-08T03:47:14.972Z,8.0
2018-02-08T03:48:16.571Z,21.5
2018-02-08T03:49:18.173Z,12.5
2018-02-08T03:50:19.777Z,8.5
2018-02-08T03:51:21.380Z,15.4
2018-02-08T03:52:22.988Z,7.8
2018-02-08T03:53:24.588Z,12.8
2018-02-08T03:54:26.198Z,10.9
2018-02-08T03:55:27.798Z,14.5
2018-02-08T03:56:29.406Z,17.8
2018-02-08T03:57:31.005Z,11.9
2018-02-08T03:58:32.613Z,5.6
2018-02-08T03:59:34.215Z,12.5
2018-02-08T04:00:35.817Z,7.8
2018-02-08T04:01:37.425Z,22.4
2018-02-08T04:02:39.027Z,9.9
2018-02-08T04:03:40.627Z,8.1
2018-02-08T04:04:42.235Z,12.5
2018-02-08T04:05:43.842Z,9.5
2018-02-08T04:06:45.446Z,13.5
2018-02-08T04:07:47.050Z,10.0
2018-02-08T04:08:48.657Z,9.5
2018-02-08T04:09:50.260Z,12.3
2018-02-08T04:10:51.865Z,10.0
2018-02-08T04:11:53.466Z,14.8
2018-02-08T04:12:55.070Z,11.7
2018-02-08T04:13:56.676Z,8.9
2018-02-08T04:14:58.291Z,10.5
2018-02-08T04:15:59.888Z,10.8
2018-02-08T04:17:01.495Z,9.5
2018-02-08T04:18:03.101Z,13.7
2018-02-08T04:19:04.699Z,7.4
2018-02-08T04:20:06.301Z,11.7
2018-02-08T04:21:07.908Z,12.3
2018-02-08T04:22:09.512Z,10.0
2018-02-08T04:23:11.122Z,8.6
2018-02-08T04:24:12.724Z,11.7
2018-02-08T04:25:14.324Z,9.1
2018-02-08T04:26:15.934Z,10.9
2018-02-08T04:27:17.538Z,10.2
2018-02-08T04:28:19.141Z,10.0
2018-02-08T04:29:20.748Z,9.6
2018-02-08T04:30:22.357Z,14.3
2018-02-08T04:31:23.961Z,8.5
2018-02-08T04:32:25.572Z,13.8
2018-02-08T04:33:27.180Z,14.8
2018-02-08T04:34:28.788Z,8.0
2018-02-08T04:35:30.393Z,10.7
2018-02-08T04:36:31.995Z,13.2
2018-02-08T04:37:33.604Z,12.8
2018-02-08T04:38:35.203Z,11.4
2018-02-08T04:39:36.812Z,15.9
2018-02-08T04:40:38.422Z,13.4
2018-02-08T04:41:40.020Z,8.6
2018-02-08T04:42:41.626Z,8.1
2018-02-08T04:43:43.228Z,15.7
2018-02-08T04:44:44.836Z,31.1
2018-02-08T04:45:46.434Z,5.4
2018-02-08T04:46:48.042Z,10.4
2018-02-08T04:47:50.554Z,12.2
2018-02-08T04:48:52.162Z,10.9
2018-02-08T04:49:53.768Z,13.1
2018-02-08T04:50:55.370Z,14.0
2018-02-08T04:51:56.978Z,17.5
2018-02-08T04:52:58.579Z,13.8
2018-02-08T04:54:00.183Z,16.1
2018-02-08T04:55:01.782Z,7.9
2018-02-08T04:56:03.394Z,12.4
2018-02-08T04:57:04.995Z,11.6
2018-02-08T04:58:06.597Z,12.3
2018-02-08T04:59:08.207Z,11.3
2018-02-08T05:00:09.809Z,9.2
2018-02-08T05:01:11.410Z,13.7
2018-02-08T05:02:13.014Z,10.0
2018-02-08T05:03:14.621Z,9.0
2018-02-08T05:04:16.227Z,16.7
2018-02-08T05:05:17.830Z,9.0
2018-02-08T05:06:19.432Z,28.6
2018-02-08T05:07:21.036Z,16.1
2018-02-08T05:08:22.637Z,14.1
2018-02-08T05:09:24.238Z,14.2
2018-02-08T05:10:25.845Z,10.3
2018-02-08T05:11:27.455Z,12.5
2018-02-08T05:12:29.061Z,12.7
2018-02-08T05:13:30.663Z,8.3
2018-02-08T05:14:32.269Z,11.8
2018-02-08T05:15:33.868Z,11.3
2018-02-08T05:16:35.469Z,12.3
2018-02-08T05:17:37.077Z,16.8
2018-02-08T05:18:38.683Z,11.6
2018-02-08T05:19:40.283Z,18.2
2018-02-08T05:20:41.888Z,12.5
2018-02-08T05:21:43.494Z,13.6
2018-02-08T05:22:45.094Z,10.8
2018-02-08T05:23:46.702Z,15.1
2018-02-08T05:24:48.304Z,16.1
2018-02-08T05:25:49.906Z,10.0
2018-02-08T05:26:51.515Z,11.5
2018-02-08T05:27:53.122Z,14.3
2018-02-08T05:28:54.727Z,17.6
2018-02-08T05:29:56.325Z,8.0
2018-02-08T05:30:57.928Z,15.2
2018-02-08T05:31:59.535Z,16.3
2018-02-08T05:33:01.138Z,13.5
2018-02-08T05:34:02.745Z,10.0
2018-02-08T05:35:04.346Z,10.8
2018-02-08T05:36:05.951Z,18.4
2018-02-08T05:37:07.550Z,14.4
2018-02-08T05:38:09.157Z,8.1
2018-02-08T05:39:10.758Z,10.5
2018-02-08T05:40:12.368Z,12.1
2018-02-08T05:41:13.975Z,11.4
2018-02-08T05:42:15.580Z,10.3
2018-02-08T05:43:17.184Z,13.7
2018-02-08T05:44:18.788Z,14.0
2018-02-08T05:45:20.386Z,8.9
2018-02-08T05:46:21.996Z,14.8
2018-02-08T05:47:23.605Z,12.3
2018-02-08T05:48:25.205Z,12.5
2018-02-08T05:49:26.812Z,8.9
2018-02-08T05:50:28.412Z,13.2
2018-02-08T05:51:30.018Z,8.2
2018-02-08T05:52:31.617Z,6.1
2018-02-08T05:53:33.222Z,9.6
2018-02-08T05:54:34.824Z,7.7
2018-02-08T05:55:36.432Z,7.7
2018-02-08T05:56:38.036Z,10.1
2018-02-08T05:57:39.647Z,9.6
2018-02-08T05:58:41.239Z,13.6
2018-02-08T05:59:42.841Z,10.0
2018-02-08T06:00:44.448Z,8.1
2018-02-08T06:01:46.053Z,8.5
2018-02-08T06:02:47.655Z,15.8
2018-02-08T06:03:49.264Z,8.9
2018-02-08T06:04:50.862Z,12.0
2018-02-08T06:05:52.470Z,8.8
2018-02-08T06:06:54.067Z,8.9
2018-02-08T06:07:55.677Z,14.0
2018-02-08T06:08:57.279Z,13.9
2018-02-08T06:09:58.887Z,10.9
2018-02-08T06:11:00.489Z,10.4
2018-02-08T06:12:02.091Z,6.5
2018-02-08T06:13:03.698Z,10.0
2018-02-08T06:14:05.302Z,7.3
2018-02-08T06:15:06.905Z,12.3
2018-02-08T06:16:08.511Z,8.7
2018-02-08T06:17:10.111Z,11.9
2018-02-08T06:18:11.721Z,11.5
2018-02-08T06:19:13.316Z,8.2
2018-02-08T06:20:14.920Z,10.8
2018-02-08T06:21:16.526Z,20.0
2018-02-08T06:22:18.127Z,10.4
2018-02-08T06:23:19.734Z,14.9
2018-02-08T06:24:21.338Z,13.2
2018-02-08T06:25:22.945Z,14.3
2018-02-08T06:26:24.544Z,8.9
2018-02-08T06:27:26.147Z,9.3
2018-02-08T06:28:27.753Z,24.9
2018-02-08T06:29:29.356Z,30.1
2018-02-08T06:30:30.959Z,12.1
2018-02-08T06:31:32.575Z,13.1
2018-02-08T06:32:34.172Z,9.1
2018-02-08T06:33:35.778Z,10.0
2018-02-08T06:34:37.381Z,13.1
2018-02-08T06:35:38.986Z,10.8
2018-02-08T06:36:40.587Z,7.6
2018-02-08T06:37:42.797Z,11.2
2018-02-08T06:38:44.405Z,14.0
2018-02-08T06:39:46.008Z,10.1
2018-02-08T06:40:47.609Z,11.0
2018-02-08T06:41:49.215Z,6.7
2018-02-08T06:42:50.820Z,10.0
2018-02-08T06:43:52.427Z,6.8
2018-02-08T06:44:54.031Z,14.2
2018-02-08T06:45:55.635Z,11.4
2018-02-08T06:46:57.245Z,13.9
2018-02-08T06:47:58.841Z,9.2
2018-02-08T06:49:00.446Z,11.4
2018-02-08T06:50:02.056Z,15.2
2018-02-08T06:51:03.666Z,10.2
2018-02-08T06:52:05.272Z,23.8
2018-02-08T06:53:06.883Z,12.0
2018-02-08T06:54:08.488Z,21.6
2018-02-08T06:55:10.958Z,14.3
2018-02-08T06:56:12.574Z,22.6
2018-02-08T06:57:14.176Z,10.2
2018-02-08T06:58:15.814Z,10.6
2018-02-08T06:59:17.388Z,17.8
2018-02-08T07:00:18.999Z,9.1
2018-02-08T07:01:20.610Z,10.2
2018-02-08T07:02:22.217Z,8.3
2018-02-08T07:03:23.823Z,7.1
2018-02-08T07:04:25.426Z,10.7
2018-02-08T07:05:27.033Z,13.9
2018-02-08T07:06:28.645Z,12.2
2018-02-08T07:07:30.256Z,16.7
2018-02-08T07:08:31.861Z,12.7
2018-02-08T07:09:33.466Z,12.5
2018-02-08T07:10:35.074Z,10.3
2018-02-08T07:11:36.682Z,10.0
2018-02-08T07:12:38.290Z,10.8
2018-02-08T07:13:39.898Z,9.1
2018-02-08T07:14:41.507Z,9.1
2018-02-08T07:15:43.119Z,28.1
2018-02-08T07:16:44.722Z,11.0
2018-02-08T07:17:46.337Z,8.7
2018-02-08T07:18:47.938Z,8.3
2018-02-08T07:19:49.551Z,7.9
2018-02-08T07:20:51.155Z,16.8
2018-02-08T07:21:52.770Z,10.8
2018-02-08T07:22:54.378Z,11.4
2018-02-08T07:23:55.991Z,15.5
2018-02-08T07:24:57.595Z,7.1
2018-02-08T07:25:59.207Z,15.2
2018-02-08T07:27:00.811Z,7.8
2018-02-08T07:28:02.445Z,10.1
2018-02-08T07:29:04.034Z,10.1
2018-02-08T07:30:05.648Z,6.6
2018-02-08T07:31:07.253Z,8.9
2018-02-08T07:32:08.870Z,11.8
2018-02-08T07:33:10.472Z,11.1
2018-02-08T07:34:12.853Z,13.7
2018-02-08T07:35:14.466Z,11.2
2018-02-08T07:36:16.075Z,9.5
2018-02-08T07:37:17.687Z,13.0
2018-02-08T07:38:19.294Z,13.8
2018-02-08T07:39:20.906Z,20.6
2018-02-08T07:40:22.511Z,12.6
2018-02-08T07:41:24.992Z,13.7
2018-02-08T07:42:26.604Z,12.8
2018-02-08T07:43:28.215Z,16.1
2018-02-08T07:44:29.825Z,15.9
2018-02-08T07:45:31.434Z,16.3
2018-02-08T07:46:33.043Z,14.6
2018-02-08T07:47:34.654Z,19.4
2018-02-08T07:48:36.262Z,14.7
2018-02-08T07:49:37.875Z,12.2
2018-02-08T07:50:39.483Z,12.6
2018-02-08T07:51:41.097Z,12.1
2018-02-08T07:52:42.708Z,10.9
2018-02-08T07:53:44.313Z,14.4
2018-02-08T07:54:45.935Z,14.2
2018-02-08T07:55:47.535Z,14.1
2018-02-08T07:56:49.146Z,13.5
2018-02-08T07:57:50.756Z,10.7
2018-02-08T07:58:53.035Z,25.4
2018-02-08T07:59:54.646Z,17.2
2018-02-08T08:00:56.259Z,12.4
2018-02-08T08:01:57.863Z,9.1
2018-02-08T08:02:59.481Z,19.7
2018-02-08T08:04:01.088Z,15.8
2018-02-08T08:05:02.702Z,16.3
2018-02-08T08:06:04.311Z,13.9
2018-02-08T08:07:05.916Z,16.3
2018-02-08T08:08:07.532Z,16.2
2018-02-08T08:09:09.137Z,19.3
2018-02-08T08:10:10.746Z,12.5
2018-02-08T08:11:12.362Z,16.0
2018-02-08T08:12:14.575Z,10.8
2018-02-08T08:13:16.186Z,9.8
2018-02-08T08:14:17.792Z,13.7
2018-02-08T08:15:19.401Z,14.2
2018-02-08T08:16:21.014Z,10.9
2018-02-08T08:17:22.626Z,16.2
2018-02-08T08:18:24.239Z,19.3
2018-02-08T08:19:25.894Z,10.1
2018-02-08T08:20:27.462Z,13.5
2018-02-08T08:21:29.071Z,13.2
2018-02-08T08:22:30.686Z,16.1
2018-02-08T08:23:32.294Z,14.0
2018-02-08T08:24:33.910Z,15.5
2018-02-08T08:25:35.523Z,15.2
2018-02-08T08:26:37.137Z,14.7
2018-02-08T08:27:38.751Z,17.1
2018-02-08T08:28:40.363Z,19.1
2018-02-08T08:29:41.970Z,21.7
2018-02-08T08:30:43.585Z,21.2
2018-02-08T08:31:45.201Z,15.9
2018-02-08T08:32:46.858Z,17.8
2018-02-08T08:33:48.423Z,15.7
2018-02-08T08:34:50.035Z,17.7
2018-02-08T08:35:51.650Z,26.2
2018-02-08T08:36:53.261Z,15.8
2018-02-08T08:37:54.871Z,17.5
2018-02-08T08:38:56.499Z,16.6
2018-02-08T08:39:58.096Z,15.0
2018-02-08T08:40:59.707Z,12.7
2018-02-08T08:42:01.322Z,11.4
2018-02-08T08:43:02.928Z,23.1
2018-02-08T08:44:04.537Z,14.5
2018-02-08T08:45:06.149Z,21.3
2018-02-08T08:46:07.766Z,21.9
2018-02-08T08:47:09.374Z,16.9
2018-02-08T08:48:10.986Z,20.5
2018-02-08T08:49:12.606Z,14.9
2018-02-08T08:50:14.221Z,22.8
2018-02-08T08:51:15.828Z,19.0
2018-02-08T08:52:17.441Z,22.1
2018-02-08T08:53:19.055Z,19.5
2018-02-08T08:54:20.670Z,22.5
2018-02-08T08:55:22.277Z,24.9
2018-02-08T08:56:23.891Z,22.4
2018-02-08T08:57:25.500Z,18.2
2018-02-08T08:58:27.108Z,15.2
2018-02-08T08:59:28.717Z,18.8
2018-02-08T09:00:30.329Z,19.2
2018-02-08T09:01:31.936Z,20.6
2018-02-08T09:02:33.553Z,21.1
2018-02-08T09:03:35.163Z,18.9
2018-02-08T09:04:36.775Z,26.8
2018-02-08T09:05:38.384Z,26.6
2018-02-08T09:06:39.995Z,22.0
2018-02-08T09:07:41.610Z,25.4
2018-02-08T09:08:43.227Z,21.6
2018-02-08T09:09:44.836Z,24.2
2018-02-08T09:10:46.446Z,23.0
2018-02-08T09:11:48.060Z,19.0
2018-02-08T09:12:49.670Z,22.7
2018-02-08T09:13:51.285Z,22.2
2018-02-08T09:14:52.896Z,34.4
2018-02-08T09:15:54.510Z,21.5
2018-02-08T09:16:56.127Z,20.3
2018-02-08T09:17:57.741Z,22.7
2018-02-08T09:18:59.355Z,28.2
2018-02-08T09:20:00.963Z,24.1
2018-02-08T09:21:02.580Z,27.6
2018-02-08T09:22:04.198Z,22.8
2018-02-08T09:23:05.811Z,24.9
2018-02-08T09:24:07.424Z,21.4
2018-02-08T09:25:09.034Z,32.1
2018-02-08T09:26:10.650Z,36.8
2018-02-08T09:27:12.266Z,32.1
2018-02-08T09:28:13.876Z,32.5
2018-02-08T09:29:15.491Z,39.9
2018-02-08T09:30:17.108Z,16.6
2018-02-08T09:31:18.726Z,21.9
2018-02-08T09:32:20.343Z,28.8
2018-02-08T09:33:21.955Z,31.7
2018-02-08T09:34:23.570Z,33.1
2018-02-08T09:35:25.178Z,34.5
2018-02-08T09:36:26.815Z,31.3
2018-02-08T09:37:28.405Z,38.6
2018-02-08T09:38:30.024Z,37.1
2018-02-08T09:39:31.637Z,33.9
2018-02-08T09:40:33.251Z,17.6
2018-02-08T09:41:34.862Z,30.6
2018-02-08T09:42:36.477Z,41.2
2018-02-08T09:43:38.090Z,36.7
2018-02-08T09:44:39.708Z,32.3
2018-02-08T09:45:41.329Z,34.3
2018-02-08T09:46:42.939Z,35.5
2018-02-08T09:47:44.552Z,34.8
2018-02-08T09:48:46.157Z,35.1
2018-02-08T09:49:47.769Z,33.0
2018-02-08T09:50:49.386Z,31.8
2018-02-08T09:51:51.005Z,33.2
2018-02-08T09:52:52.628Z,31.2
2018-02-08T09:53:54.254Z,45.7
2018-02-08T09:54:55.863Z,36.5
2018-02-08T09:55:57.482Z,33.4
2018-02-08T09:56:59.093Z,33.7
2018-02-08T09:58:00.712Z,31.6
2018-02-08T09:59:02.327Z,34.1
2018-02-08T10:00:03.949Z,35.2
2018-02-08T10:01:05.563Z,36.5
2018-02-08T10:02:07.181Z,34.6
2018-02-08T10:03:08.798Z,37.1
2018-02-08T10:04:10.410Z,34.0
2018-02-08T10:05:12.030Z,32.1
2018-02-08T10:06:13.650Z,31.7
2018-02-08T10:07:15.263Z,41.2
2018-02-08T10:08:16.888Z,38.6
2018-02-08T10:09:18.496Z,32.4
2018-02-08T10:10:20.110Z,33.3
2018-02-08T10:11:21.730Z,33.1
2018-02-08T10:12:23.348Z,28.0
2018-02-08T10:13:24.962Z,37.8
2018-02-08T10:14:26.579Z,38.2
2018-02-08T10:15:28.202Z,34.3
2018-02-08T10:16:29.817Z,36.4
2018-02-08T10:17:31.432Z,34.5
2018-02-08T10:18:33.048Z,35.3
2018-02-08T10:19:34.669Z,34.9
2018-02-08T10:20:36.286Z,33.6
2018-02-08T10:21:37.905Z,36.9
2018-02-08T10:22:39.522Z,37.2
2018-02-08T10:23:41.144Z,33.2
2018-02-08T10:24:42.755Z,29.4
2018-02-08T10:25:44.380Z,34.7
2018-02-08T10:26:45.997Z,34.6
2018-02-08T10:27:47.614Z,32.6
2018-02-08T10:28:49.230Z,38.3
2018-02-08T10:29:50.853Z,32.3
2018-02-08T10:30:52.470Z,35.5
2018-02-08T10:31:54.087Z,36.1
2018-02-08T10:32:55.705Z,31.4
2018-02-08T10:33:57.325Z,32.6
2018-02-08T10:34:58.941Z,36.7
2018-02-08T10:36:00.595Z,29.9
2018-02-08T10:37:02.274Z,27.5
2018-02-08T10:38:03.886Z,30.2
2018-02-08T10:39:05.504Z,34.0
2018-02-08T10:40:07.122Z,28.5
2018-02-08T10:41:08.742Z,27.8
2018-02-08T10:42:10.357Z,29.3
2018-02-08T10:43:11.977Z,27.3
2018-02-08T10:44:13.598Z,34.2
2018-02-08T10:45:15.217Z,33.1
2018-02-08T10:46:16.832Z,23.2
2018-02-08T10:47:18.446Z,27.0
2018-02-08T10:48:20.071Z,29.3
2018-02-08T10:49:21.691Z,39.4
2018-02-08T10:50:23.306Z,30.0
2018-02-08T10:51:24.923Z,31.4
2018-02-08T10:52:26.603Z,35.9
2018-02-08T10:53:28.164Z,29.9
2018-02-08T10:54:29.778Z,31.7
2018-02-08T10:55:31.396Z,30.6
2018-02-08T10:56:33.019Z,34.8
2018-02-08T10:57:34.657Z,36.3
2018-02-08T10:58:36.255Z,31.4
2018-02-08T10:59:37.868Z,32.3
2018-02-08T11:00:39.488Z,32.8
2018-02-08T11:01:41.106Z,31.1
2018-02-08T11:02:42.720Z,34.4
2018-02-08T11:03:44.336Z,30.5
2018-02-08T11:04:45.964Z,30.6
2018-02-08T11:05:47.579Z,34.2
2018-02-08T11:06:49.191Z,33.1
2018-02-08T11:07:50.818Z,32.1
2018-02-08T11:08:52.426Z,29.0
2018-02-08T11:09:54.046Z,32.9
2018-02-08T11:10:55.659Z,31.4
2018-02-08T11:11:57.281Z,35.2
2018-02-08T11:12:58.924Z,30.8
2018-02-08T11:14:00.514Z,26.5
2018-02-08T11:15:02.129Z,30.7
2018-02-08T11:16:03.750Z,29.6
2018-02-08T11:17:05.363Z,32.2
2018-02-08T11:18:06.987Z,27.7
2018-02-08T11:19:08.599Z,28.5
2018-02-08T11:20:10.221Z,29.7
2018-02-08T11:21:11.835Z,25.2
2018-02-08T11:22:13.454Z,31.4
2018-02-08T11:23:15.071Z,30.7
2018-02-08T11:24:16.688Z,26.4
2018-02-08T11:25:18.305Z,29.2
2018-02-08T11:26:19.968Z,33.3
2018-02-08T11:27:21.541Z,23.8
2018-02-08T11:28:23.155Z,23.2
2018-02-08T11:29:24.773Z,31.8
2018-02-08T11:30:26.391Z,30.3
2018-02-08T11:31:28.008Z,30.4
2018-02-08T11:32:29.622Z,29.7
2018-02-08T11:33:31.245Z,29.2
2018-02-08T11:34:32.860Z,29.8
2018-02-08T11:35:34.479Z,29.8
2018-02-08T11:36:36.092Z,28.1
2018-02-08T11:37:37.712Z,25.6
2018-02-08T11:38:39.323Z,25.3
2018-02-08T11:39:40.946Z,26.7
2018-02-08T11:40:42.560Z,30.5
2018-02-08T11:41:44.179Z,28.6
2018-02-08T11:42:45.788Z,27.3
2018-02-08T11:43:47.409Z,25.6
2018-02-08T11:44:49.024Z,28.3
2018-02-08T11:45:50.638Z,24.7
2018-02-08T11:46:52.253Z,26.5
2018-02-08T11:47:53.872Z,29.8
2018-02-08T11:48:55.487Z,26.5
2018-02-08T11:49:57.104Z,25.0
2018-02-08T11:50:58.719Z,25.3
2018-02-08T11:52:00.331Z,28.8
2018-02-08T11:53:01.945Z,31.7
2018-02-08T11:54:03.563Z,27.5
2018-02-08T11:55:05.183Z,24.9
2018-02-08T11:56:06.796Z,26.5
2018-02-08T11:57:08.409Z,31.5
2018-02-08T11:58:10.027Z,26.6
2018-02-08T11:59:11.645Z,30.5
2018-02-08T12:00:13.258Z,30.7
2018-02-08T12:01:14.877Z,22.5
2018-02-08T12:02:16.492Z,30.7
2018-02-08T12:03:18.114Z,20.0
2018-02-08T12:04:19.724Z,18.2
2018-02-08T12:05:21.337Z,25.2
2018-02-08T12:06:22.956Z,25.0
2018-02-08T12:07:24.576Z,31.5
2018-02-08T12:08:26.184Z,22.8
2018-02-08T12:09:27.802Z,21.4
2018-02-08T12:10:29.424Z,23.4
2018-02-08T12:11:31.039Z,22.9
2018-02-08T12:12:32.651Z,24.4
2018-02-08T12:13:34.271Z,23.1
2018-02-08T12:14:35.881Z,25.6
2018-02-08T12:15:37.495Z,26.6
2018-02-08T12:16:39.116Z,25.7
2018-02-08T12:17:40.739Z,26.3
2018-02-08T12:18:42.346Z,23.6
2018-02-08T12:19:43.958Z,25.6
2018-02-08T12:20:45.577Z,22.8
2018-02-08T12:21:47.193Z,19.9
2018-02-08T12:22:48.808Z,25.9
2018-02-08T12:23:50.429Z,22.2
2018-02-08T12:24:52.043Z,26.5
2018-02-08T12:25:53.659Z,23.3
2018-02-08T12:26:55.272Z,30.1
2018-02-08T12:27:56.887Z,23.2
2018-02-08T12:28:58.501Z,19.1
2018-02-08T12:30:00.120Z,30.4
2018-02-08T12:31:01.735Z,24.9
2018-02-08T12:32:03.353Z,24.4
2018-02-08T12:33:04.964Z,29.5
2018-02-08T12:34:06.582Z,28.9
2018-02-08T12:35:08.196Z,21.2
2018-02-08T12:36:09.816Z,23.5
2018-02-08T12:37:11.430Z,27.8
2018-02-08T12:38:13.051Z,24.3
2018-02-08T12:39:14.665Z,23.4
2018-02-08T12:40:16.277Z,26.6
2018-02-08T12:41:17.896Z,21.6
2018-02-08T12:42:19.507Z,25.7
2018-02-08T12:43:21.122Z,23.9
2018-02-08T12:44:22.736Z,24.7
2018-02-08T12:45:24.350Z,26.7
2018-02-08T12:46:25.970Z,25.8
2018-02-08T12:47:27.581Z,26.9
2018-02-08T12:48:29.198Z,25.1
2018-02-08T12:49:30.809Z,30.8
2018-02-08T12:50:32.437Z,30.4
2018-02-08T12:51:34.046Z,26.3
2018-02-08T12:52:35.660Z,25.9
2018-02-08T12:53:37.271Z,24.6
2018-02-08T12:54:38.888Z,29.5
2018-02-08T12:55:40.503Z,25.4
2018-02-08T12:56:42.116Z,37.1
2018-02-08T12:57:43.734Z,32.1
2018-02-08T12:58:45.347Z,31.2
2018-02-08T12:59:46.962Z,24.6
2018-02-08T13:00:48.575Z,28.1
2018-02-08T13:01:50.188Z,21.5
2018-02-08T13:02:51.803Z,24.1
2018-02-08T13:03:53.467Z,30.1
2018-02-08T13:04:55.039Z,29.8
2018-02-08T13:05:56.688Z,29.7
2018-02-08T13:06:58.257Z,27.9
2018-02-08T13:07:59.875Z,28.4
2018-02-08T13:09:01.490Z,30.7
2018-02-08T13:10:03.100Z,28.0
2018-02-08T13:11:04.718Z,26.8
2018-02-08T13:12:06.333Z,27.1
2018-02-08T13:13:07.946Z,30.9
2018-02-08T13:14:09.563Z,25.8
2018-02-08T13:15:11.178Z,29.3
2018-02-08T13:16:12.787Z,29.8
2018-02-08T13:17:14.913Z,25.6
2018-02-08T13:18:16.524Z,25.9
2018-02-08T13:19:18.137Z,27.6
2018-02-08T13:20:19.756Z,28.3
2018-02-08T13:21:21.370Z,27.7
2018-02-08T13:22:22.988Z,26.6
2018-02-08T13:23:24.597Z,28.8
2018-02-08T13:24:26.213Z,26.2
2018-02-08T13:25:27.822Z,25.0
2018-02-08T13:26:29.442Z,22.7
2018-02-08T13:27:31.057Z,29.3
2018-02-08T13:28:34.032Z,26.6
2018-02-08T13:29:35.655Z,24.8
2018-02-08T13:30:37.260Z,24.4
2018-02-08T13:31:38.877Z,28.3
2018-02-08T13:32:40.486Z,29.9
2018-02-08T13:33:42.103Z,27.6
2018-02-08T13:34:43.721Z,25.4
2018-02-08T13:35:45.334Z,22.9
2018-02-08T13:36:46.950Z,24.0
2018-02-08T13:37:48.563Z,24.6
2018-02-08T13:38:50.176Z,25.7
2018-02-08T13:39:51.785Z,23.3
2018-02-08T13:40:53.403Z,27.3
2018-02-08T13:41:55.022Z,25.5
2018-02-08T13:42:56.633Z,26.7